createdAt,value
2023-04-25T00:01:18.635Z,76.02148
2023-04-25T00:03:18.737Z,76.58789
2023-04-25T00:05:18.553Z,76.62695
2023-04-25T00:08:21.525Z,76.87207
2023-04-25T00:10:21.564Z,77.5166
2023-04-25T00:12:21.677Z,77.7373
2023-04-25T00:14:21.538Z,77.40137
2023-04-25T00:16:21.627Z,77.78223
2023-04-25T00:18:21.617Z,77.36816
2023-04-25T00:20:21.561Z,77.9541
2023-04-25T00:22:21.566Z,77.75684
2023-04-25T00:23:57.897Z,77.98242
2023-04-25T00:25:58.008Z,77.79199
2023-04-25T00:27:57.926Z,76.80176
2023-04-25T00:29:57.891Z,76.06738
2023-04-25T00:31:58.174Z,75.73633
2023-04-25T00:33:57.864Z,75.08301
2023-04-25T00:35:57.939Z,74.94238
2023-04-25T00:39:29.828Z,74.78613
2023-04-25T00:41:29.817Z,74.6748
2023-04-25T00:43:29.855Z,75.125
2023-04-25T00:45:29.780Z,75.92383
2023-04-25T00:47:29.808Z,75.22461
2023-04-25T00:49:29.819Z,74.94434
2023-04-25T00:51:29.772Z,75.52051
2023-04-25T00:54:27.035Z,75.98828
2023-04-25T00:56:27.050Z,76.68066
2023-04-25T00:58:27.117Z,76.80957
2023-04-25T01:00:26.959Z,76.41504
2023-04-25T01:02:27.267Z,77.03711
2023-04-25T01:04:27.131Z,77.13574
2023-04-25T01:06:26.923Z,77.63574
2023-04-25T01:09:19.387Z,78.28223
2023-04-25T01:11:19.351Z,78.63867
2023-04-25T01:13:19.418Z,78.66602
2023-04-25T01:15:19.369Z,78.70508
2023-04-25T01:17:19.399Z,79.31738
2023-04-25T01:19:19.485Z,79.32227
2023-04-25T01:21:19.358Z,79.40234
2023-04-25T01:24:12.269Z,79.31348
2023-04-25T01:26:12.217Z,79.91699
2023-04-25T01:28:12.284Z,80.05566
2023-04-25T01:30:12.216Z,79.97754
2023-04-25T01:32:12.398Z,80.14258
2023-04-25T01:34:12.255Z,79.88965
2023-04-25T01:36:12.229Z,80.20898
2023-04-25T01:38:12.354Z,79.93652
2023-04-25T01:39:37.818Z,80.43652
2023-04-25T01:41:37.954Z,80.50293
2023-04-25T01:43:38.010Z,79.92969
2023-04-25T01:45:37.986Z,80.12793
2023-04-25T01:47:38.241Z,79.83398
2023-04-25T01:49:38.035Z,80.44043
2023-04-25T01:51:38.082Z,80.46387
2023-04-25T01:54:44.178Z,80.81641
2023-04-25T01:56:44.408Z,80.67773
2023-04-25T01:58:44.365Z,80.55762
2023-04-25T02:00:44.418Z,80.92578
2023-04-25T02:02:44.761Z,80.53027
2023-04-25T02:04:44.574Z,80.9834
2023-04-25T02:06:44.287Z,80.57324
2023-04-25T02:10:21.898Z,80.11328
2023-04-25T02:12:21.702Z,79.98828
2023-04-25T02:14:21.792Z,79.98438
2023-04-25T02:16:22.125Z,79.5625
2023-04-25T02:18:22.234Z,79.35352
2023-04-25T02:20:22.071Z,80.49902
2023-04-25T02:22:21.737Z,79.64746
2023-04-25T02:25:16.380Z,79.89941
2023-04-25T02:27:16.241Z,79.62695
2023-04-25T02:29:16.234Z,79.41211
2023-04-25T02:31:16.263Z,79.81738
2023-04-25T02:33:16.218Z,79.51563
2023-04-25T02:35:16.150Z,79.72852
2023-04-25T02:37:16.165Z,80.12891
2023-04-25T02:40:27.448Z,80.0957
2023-04-25T02:42:27.670Z,80.20508
2023-04-25T02:44:27.521Z,80
2023-04-25T02:46:39.262Z,79.97363
2023-04-25T02:48:27.397Z,79.2002
2023-04-25T02:50:27.482Z,78.99316
2023-04-25T02:52:27.565Z,77.73047
2023-04-25T02:56:00.951Z,77.42285
2023-04-25T02:58:00.699Z,77.90527
2023-04-25T03:00:00.766Z,78.04004
2023-04-25T03:02:00.782Z,77.23242
2023-04-25T03:04:00.856Z,76.66895
2023-04-25T03:06:00.618Z,77.26074
2023-04-25T03:08:00.612Z,77.08496
2023-04-25T03:10:30.853Z,76.85547
2023-04-25T03:12:30.793Z,76.95313
2023-04-25T03:14:30.834Z,76.54004
2023-04-25T03:16:31.184Z,76.11816
2023-04-25T03:18:30.976Z,75.71582
2023-04-25T03:20:30.895Z,75.81152
2023-04-25T03:22:30.995Z,76.03125
2023-04-25T03:25:43.053Z,76.40234
2023-04-25T03:27:42.941Z,75.91211
2023-04-25T03:29:42.975Z,75.85352
2023-04-25T03:31:43.087Z,76.0459
2023-04-25T03:33:43.104Z,75.21875
2023-04-25T03:35:42.941Z,75.6416
2023-04-25T03:37:43.075Z,76.06836
2023-04-25T03:41:25.832Z,76.64746
2023-04-25T03:43:25.825Z,76.52539
2023-04-25T03:45:25.952Z,77.13086
2023-04-25T03:47:25.780Z,77.28027
2023-04-25T03:49:26.096Z,78.09277
2023-04-25T03:51:25.743Z,78.625
2023-04-25T03:53:25.803Z,78.87891
2023-04-25T03:56:29.089Z,79.52539
2023-04-25T03:58:28.950Z,79.06836
2023-04-25T04:00:29.084Z,79.62305
2023-04-25T04:02:29.369Z,80.13184
2023-04-25T04:04:29.813Z,80.27246
2023-04-25T04:06:28.879Z,79.9834
2023-04-25T04:08:28.971Z,80.13379
2023-04-25T04:11:51.787Z,80.30957
2023-04-25T04:13:52.426Z,79.50195
2023-04-25T04:15:51.763Z,79.19238
2023-04-25T04:17:51.881Z,79.10156
2023-04-25T04:19:51.689Z,78.96973
2023-04-25T04:21:51.686Z,79.32422
2023-04-25T04:23:52.177Z,79.45605
2023-04-25T04:26:11.476Z,78.89648
2023-04-25T04:28:11.440Z,79.45117
2023-04-25T04:30:11.464Z,79.83594
2023-04-25T04:32:11.454Z,79.47363
2023-04-25T04:34:11.426Z,79.29785
2023-04-25T04:36:11.392Z,79.39355
2023-04-25T04:38:11.475Z,79.29688
2023-04-25T04:40:11.468Z,79.14551
2023-04-25T04:41:30.675Z,79.36426
2023-04-25T04:43:30.676Z,79.31348
2023-04-25T04:45:30.714Z,79.61328
2023-04-25T04:47:30.756Z,79.34375
2023-04-25T04:49:30.696Z,79.15332
2023-04-25T04:51:30.700Z,78.98828
2023-04-25T04:53:30.761Z,79.08105
2023-04-25T04:56:47.067Z,79.00098
2023-04-25T04:58:47.003Z,78.67285
2023-04-25T05:00:47.009Z,77.82617
2023-04-25T05:02:47.356Z,78.0752
2023-04-25T05:04:47.177Z,77.24707
2023-04-25T05:06:49.292Z,77.66016
2023-04-25T05:08:46.995Z,77.94824
2023-04-25T05:12:05.405Z,77.74121
2023-04-25T05:14:05.457Z,77.55176
2023-04-25T05:16:05.406Z,76.83203
2023-04-25T05:18:05.540Z,76.1377
2023-04-25T05:20:05.404Z,76.41895
2023-04-25T05:22:05.672Z,76.45215
2023-04-25T05:24:05.383Z,76.0166
2023-04-25T05:27:36.360Z,75.29102
2023-04-25T05:29:36.309Z,76.18457
2023-04-25T05:31:36.329Z,75.87402
2023-04-25T05:33:36.400Z,75.52539
2023-04-25T05:35:36.298Z,74.98047
2023-04-25T05:37:36.296Z,75.55664
2023-04-25T05:39:36.254Z,73.98145
2023-04-25T05:42:24.626Z,73.66406
2023-04-25T05:44:24.832Z,73.49707
2023-04-25T05:46:24.634Z,73.53906
2023-04-25T05:48:24.539Z,72.93848
2023-04-25T05:50:24.452Z,73.3584
2023-04-25T05:52:24.480Z,71.29688
2023-04-25T05:54:24.438Z,71.33203
2023-04-25T05:57:26.625Z,71.32813
2023-04-25T05:59:26.661Z,69.8457
2023-04-25T06:01:26.759Z,69.01758
2023-04-25T06:03:27.108Z,67.59375
2023-04-25T06:05:26.928Z,65.75293
2023-04-25T06:07:26.655Z,67.81152
2023-04-25T06:09:26.568Z,66.72168
2023-04-25T06:12:20.353Z,67.43066
2023-04-25T06:14:20.300Z,66.76953
2023-04-25T06:16:20.513Z,66.83105
2023-04-25T06:18:20.577Z,65.68457
2023-04-25T06:20:20.313Z,66.6084
2023-04-25T06:22:20.363Z,63.5791
2023-04-25T06:24:20.354Z,62.62695
2023-04-25T06:26:20.358Z,62.36328
2023-04-25T06:28:10.361Z,61.26758
2023-04-25T06:30:10.295Z,62.125
2023-04-25T06:32:10.266Z,61.64844
2023-04-25T06:34:10.523Z,61.10254
2023-04-25T06:36:10.310Z,61.47754
2023-04-25T06:38:10.329Z,59.79102
2023-04-25T06:40:10.362Z,62.5625
2023-04-25T06:43:28.349Z,60.88477
2023-04-25T06:45:28.276Z,57.55566
2023-04-25T06:47:28.430Z,62.10742
2023-04-25T06:49:28.402Z,61.55273
2023-04-25T06:51:28.310Z,59.8916
2023-04-25T06:53:28.304Z,60.75293
2023-04-25T06:55:28.565Z,59.55762
2023-04-25T06:58:25.005Z,58.36621
2023-04-25T07:00:24.983Z,61.28223
2023-04-25T07:02:25.321Z,60.34863
2023-04-25T07:04:25.682Z,59.17285
2023-04-25T07:06:25.102Z,60.18945
2023-04-25T07:08:25.014Z,60.61621
2023-04-25T07:10:25.069Z,55.96777
2023-04-25T07:13:02.250Z,60.27441
2023-04-25T07:15:02.303Z,60.08594
2023-04-25T07:17:02.488Z,59.77344
2023-04-25T07:19:02.746Z,57.87988
2023-04-25T07:21:02.315Z,57.73828
2023-04-25T07:23:02.369Z,57.77246
2023-04-25T07:25:02.314Z,58.40137
2023-04-25T07:27:02.288Z,57.30176
2023-04-25T07:29:04.780Z,53.2207
2023-04-25T07:31:04.615Z,55.51465
2023-04-25T07:33:04.849Z,57.04883
2023-04-25T07:35:04.541Z,56.50195
2023-04-25T07:37:04.483Z,51.91211
2023-04-25T07:39:04.668Z,54.47754
2023-04-25T07:41:04.529Z,58.1416
2023-04-25T07:44:15.285Z,56.01074
2023-04-25T07:46:15.679Z,59.60547
2023-04-25T07:48:15.460Z,57.90625
2023-04-25T07:50:15.451Z,57.68164
2023-04-25T07:52:15.699Z,58.1543
2023-04-25T07:54:15.415Z,57.21777
2023-04-25T07:56:15.534Z,53.43066
2023-04-25T07:58:48.461Z,55.52051
2023-04-25T08:00:48.266Z,53.65723
2023-04-25T08:02:49.037Z,52.84082
2023-04-25T08:04:48.693Z,51.89844
2023-04-25T08:06:48.454Z,52.31445
2023-04-25T08:08:48.814Z,54.14453
2023-04-25T08:10:48.363Z,54.92188
2023-04-25T08:13:44.995Z,52.09277
2023-04-25T08:15:45.090Z,53.05469
2023-04-25T08:17:45.213Z,54.39453
2023-04-25T08:19:45.030Z,53.99805
2023-04-25T08:21:45.002Z,52.27051
2023-04-25T08:23:45.042Z,51.66895
2023-04-25T08:25:45.019Z,50.80273
2023-04-25T08:27:45.077Z,48.51563
2023-04-25T08:28:54.678Z,50.47266
2023-04-25T08:30:54.711Z,51.73926
2023-04-25T08:32:55.226Z,51.88379
2023-04-25T08:34:54.731Z,49.41504
2023-04-25T08:36:54.666Z,48.32227
2023-04-25T08:38:55.894Z,49.5791
2023-04-25T08:40:55.080Z,47.2334
2023-04-25T08:42:55.014Z,50.30371
2023-04-25T08:44:32.887Z,52.47559
2023-04-25T08:46:32.793Z,52.81641
2023-04-25T08:48:32.668Z,52.37988
2023-04-25T08:50:32.714Z,52.54492
2023-04-25T08:52:32.737Z,54.54004
2023-04-25T08:54:36.895Z,56.00977
2023-04-25T08:56:32.691Z,55.82617
2023-04-25T08:59:22.415Z,54.76367
2023-04-25T09:01:22.553Z,49.2793
2023-04-25T09:03:22.871Z,52.97852
2023-04-25T09:05:22.542Z,52.71777
2023-04-25T09:07:22.555Z,51.20313
2023-04-25T09:09:22.387Z,50.73535
2023-04-25T09:11:23.917Z,52.57129
2023-04-25T09:14:31.870Z,49.93359
2023-04-25T09:16:35.567Z,52.79785
2023-04-25T09:18:31.836Z,54.94336
2023-04-25T09:20:35.469Z,55.6377
2023-04-25T09:22:31.870Z,54.99707
2023-04-25T09:24:31.852Z,53.24023
2023-04-25T09:26:31.890Z,51.18848
2023-04-25T09:29:33.617Z,48.68066
2023-04-25T09:31:33.721Z,45.49902
2023-04-25T09:33:33.751Z,47.49121
2023-04-25T09:35:33.637Z,47.08887
2023-04-25T09:37:33.771Z,49.58887
2023-04-25T09:39:33.764Z,46.31641
2023-04-25T09:41:33.683Z,48.83496
2023-04-25T09:43:33.753Z,47.46973
2023-04-25T09:44:41.024Z,49.45801
2023-04-25T09:46:40.983Z,44.10645
2023-04-25T09:48:40.791Z,48.48828
2023-04-25T09:50:40.652Z,44.6377
2023-04-25T09:52:40.856Z,46.79297
2023-04-25T09:54:40.712Z,46.68555
2023-04-25T09:56:40.820Z,48.81348
2023-04-25T09:58:40.744Z,50.04297
2023-04-25T10:00:25.527Z,49.80078
2023-04-25T10:02:25.897Z,49.68164
2023-04-25T10:04:25.673Z,51.71289
2023-04-25T10:06:25.730Z,51.58008
2023-04-25T10:08:25.700Z,53.1377
2023-04-25T10:10:25.622Z,54.0957
2023-04-25T10:12:25.634Z,54.11719
2023-04-25T10:15:41.865Z,55.93359
2023-04-25T10:17:42.158Z,55.9082
2023-04-25T10:19:41.986Z,55.83594
2023-04-25T10:21:41.857Z,55.36719
2023-04-25T10:23:41.996Z,55.75684
2023-04-25T10:25:41.821Z,54.51855
2023-04-25T10:27:41.790Z,56.64355
2023-04-25T10:30:36.939Z,57.51367
2023-04-25T10:32:36.955Z,52.92188
2023-04-25T10:34:37.118Z,55.2207
2023-04-25T10:36:36.909Z,52.52441
2023-04-25T10:38:36.960Z,53.90137
2023-04-25T10:40:36.889Z,55.67285
2023-04-25T10:42:36.872Z,52.99414
2023-04-25T10:45:39.013Z,55.03906
2023-04-25T10:47:38.987Z,55.96289
2023-04-25T10:49:38.932Z,55.94043
2023-04-25T10:51:55.203Z,56.52344
2023-04-25T10:53:38.975Z,55.10938
2023-04-25T10:55:39.002Z,55.87402
2023-04-25T10:57:38.916Z,51.24512
2023-04-25T11:02:40.550Z,50.69824
2023-04-25T11:04:40.546Z,47.76758
2023-04-25T11:06:40.047Z,49.24121
2023-04-25T11:08:40.092Z,45.14551
2023-04-25T11:10:40.188Z,44.59668
2023-04-25T11:12:40.090Z,47.59375
2023-04-25T11:16:07.638Z,44.81348
2023-04-25T11:17:55.866Z,43.47852
2023-04-25T11:19:55.744Z,46.8877
2023-04-25T11:21:55.728Z,46.41992
2023-04-25T11:23:55.841Z,45.33008
2023-04-25T11:25:55.790Z,43.16992
2023-04-25T11:27:55.729Z,48.4375
2023-04-25T11:31:27.584Z,47.80664
2023-04-25T11:33:27.471Z,48.16309
2023-04-25T11:35:27.332Z,48.58301
2023-04-25T11:37:27.445Z,47.09668
2023-04-25T11:39:27.468Z,50.70996
2023-04-25T11:41:27.394Z,49.83594
2023-04-25T11:43:27.426Z,49.4541
2023-04-25T11:46:05.962Z,54.38086
2023-04-25T11:48:05.547Z,55.46094
2023-04-25T11:50:05.573Z,60.625
2023-04-25T11:52:05.591Z,60.78711
2023-04-25T11:54:05.635Z,58.60449
2023-04-25T11:56:05.964Z,57.92969
2023-04-25T11:58:05.804Z,59.63574
2023-04-25T12:00:05.982Z,60.33105
2023-04-25T12:01:12.465Z,59.7002
2023-04-25T12:03:12.768Z,56.56152
2023-04-25T12:07:12.483Z,56.72949
2023-04-25T12:09:12.490Z,54.66016
2023-04-25T12:11:12.525Z,55.47168
2023-04-25T12:13:12.484Z,56.78809
2023-04-25T12:15:12.474Z,60.41016
2023-04-25T12:17:17.138Z,58.77832
2023-04-25T12:19:17.172Z,60.66113
2023-04-25T12:21:17.227Z,60.82129
2023-04-25T12:23:17.153Z,63.99805
2023-04-25T12:25:17.159Z,63.03613
2023-04-25T12:27:17.331Z,64.63281
2023-04-25T12:29:17.121Z,63.88477
2023-04-25T12:32:31.781Z,58.37305
2023-04-25T12:34:31.663Z,58.24707
2023-04-25T12:36:31.679Z,60.24902
2023-04-25T12:38:31.761Z,59.41309
2023-04-25T12:40:31.683Z,61.05371
2023-04-25T12:42:31.807Z,61.44434
2023-04-25T12:44:31.867Z,56.90137
2023-04-25T12:46:51.286Z,59.30469
2023-04-25T12:48:51.586Z,56.92871
2023-04-25T12:50:51.080Z,62.27051
2023-04-25T12:52:51.021Z,61.61816
2023-04-25T12:54:51.050Z,62.21777
2023-04-25T12:56:51.008Z,60.88379
2023-04-25T12:58:51.730Z,61.37695
2023-04-25T13:00:51.048Z,63.34082
2023-04-25T13:02:33.233Z,62.00684
2023-04-25T13:04:33.263Z,64.03613
2023-04-25T13:06:33.156Z,61.79102
2023-04-25T13:08:33.045Z,58.93164
2023-04-25T13:10:33.035Z,62.86035
2023-04-25T13:12:33.075Z,60.4873
2023-04-25T13:14:33.140Z,61.4248
2023-04-25T13:18:00.850Z,61.16992
2023-04-25T13:20:00.752Z,59.83008
2023-04-25T13:22:00.797Z,59.94043
2023-04-25T13:24:00.853Z,59.67285
2023-04-25T13:26:00.544Z,61.89844
2023-04-25T13:28:00.655Z,62.60254
2023-04-25T13:30:00.670Z,61.56641
2023-04-25T13:32:39.170Z,60.45215
2023-04-25T13:34:38.902Z,58.07324
2023-04-25T13:36:38.803Z,56.3291
2023-04-25T13:38:38.861Z,57.92773
2023-04-25T13:40:38.863Z,58.0127
2023-04-25T13:42:39.036Z,58.50684
2023-04-25T13:44:38.989Z,62.79004
2023-04-25T13:47:28.512Z,61.59473
2023-04-25T13:49:28.446Z,62.66113
2023-04-25T13:51:28.594Z,59.32227
2023-04-25T13:53:28.483Z,59.82129
2023-04-25T13:55:28.513Z,62.07715
2023-04-25T13:57:28.604Z,64.63086
2023-04-25T13:59:28.463Z,63.61133
2023-04-25T14:01:28.637Z,66.66895
2023-04-25T14:03:23.478Z,67.42676
2023-04-25T14:05:23.104Z,68.24902
2023-04-25T14:07:23.344Z,67.41504
2023-04-25T14:09:23.018Z,66.35059
2023-04-25T14:11:23.476Z,68.0498
2023-04-25T14:13:23.248Z,69.3623
2023-04-25T14:15:23.106Z,68.06543
2023-04-25T14:18:17.378Z,66.12207
2023-04-25T14:20:17.502Z,65.7334
2023-04-25T14:22:17.592Z,63.18359
2023-04-25T14:24:17.372Z,56.32031
2023-04-25T14:26:17.754Z,57.84375
2023-04-25T14:28:17.339Z,58.27344
2023-04-25T14:30:17.313Z,57.89844
2023-04-25T14:33:51.809Z,56.08691
2023-04-25T14:35:51.735Z,57.30762
2023-04-25T14:37:51.237Z,59.91602
2023-04-25T14:39:52.352Z,58.74609
2023-04-25T14:41:51.153Z,59.76465
2023-04-25T14:43:51.873Z,58.125
2023-04-25T14:45:51.163Z,59.78809
2023-04-25T14:48:14.563Z,59.4834
2023-04-25T14:50:14.531Z,60.75586
2023-04-25T14:52:14.536Z,59.14355
2023-04-25T14:54:14.529Z,58.85645
2023-04-25T14:56:14.534Z,59.61523
2023-04-25T14:58:14.465Z,60.55273
2023-04-25T15:00:14.432Z,59.41504
2023-04-25T15:04:07.263Z,59.90137
2023-04-25T15:06:06.560Z,60.58203
2023-04-25T15:08:06.541Z,62.79297
2023-04-25T15:10:06.536Z,63.29492
2023-04-25T15:12:06.381Z,64.54883
2023-04-25T15:14:06.445Z,64.55078
2023-04-25T15:16:06.587Z,64.83008
2023-04-25T15:18:45.431Z,62.83984
2023-04-25T15:20:45.413Z,61.83301
2023-04-25T15:22:45.671Z,62.80762
2023-04-25T15:24:45.630Z,62.87695
2023-04-25T15:26:45.556Z,61.18555
2023-04-25T15:28:45.508Z,60.87891
2023-04-25T15:30:45.494Z,60.31836
2023-04-25T15:33:54.805Z,60.25586
2023-04-25T15:35:54.783Z,61.86816
2023-04-25T15:37:54.911Z,62.22168
2023-04-25T15:39:55.034Z,62.61328
2023-04-25T15:41:55.137Z,62.34375
2023-04-25T15:43:55.188Z,63.73535
2023-04-25T15:45:54.912Z,64.93457
2023-04-25T15:49:14.922Z,65.62695
2023-04-25T15:51:14.979Z,65.63574
2023-04-25T15:53:15.021Z,65.73828
2023-04-25T15:55:15.219Z,66.07227
2023-04-25T15:57:14.986Z,66.18262
2023-04-25T15:59:14.945Z,66.27734
2023-04-25T16:01:15.001Z,65.64355
2023-04-25T16:04:02.260Z,67.24023
2023-04-25T16:06:01.397Z,67.19238
2023-04-25T16:08:01.721Z,65.02246
2023-04-25T16:10:01.560Z,66.17969
2023-04-25T16:12:01.752Z,66.65332
2023-04-25T16:14:01.476Z,67.62988
2023-04-25T16:16:01.704Z,67.4248
2023-04-25T16:19:07.989Z,66.97559
2023-04-25T16:21:08.081Z,67.15625
2023-04-25T16:23:08.358Z,67.1582
2023-04-25T16:25:07.907Z,67.08496
2023-04-25T16:27:08.018Z,67.44043
2023-04-25T16:29:07.919Z,67.4248
2023-04-25T16:31:07.969Z,67.71191
2023-04-25T16:33:07.933Z,67.96875
2023-04-25T16:35:06.148Z,67.93262
2023-04-25T16:37:06.707Z,67.61719
2023-04-25T16:39:06.339Z,67.47852
2023-04-25T16:41:06.313Z,68.23535
2023-04-25T16:43:06.191Z,67.96582
2023-04-25T16:45:06.327Z,67.89063
2023-04-25T16:47:06.567Z,68.08984
2023-04-25T16:49:20.617Z,67.8623
2023-04-25T16:51:20.721Z,68.17383
2023-04-25T16:53:20.594Z,67.8623
2023-04-25T16:55:23.455Z,68.00391
2023-04-25T16:57:20.571Z,68.7168
2023-04-25T16:59:20.632Z,69.00488
2023-04-25T17:01:20.773Z,68.91699
2023-04-25T17:03:20.805Z,69.01758
2023-04-25T17:05:08.691Z,68.87695
2023-04-25T17:07:08.647Z,69.16113
2023-04-25T17:09:08.755Z,68.74121
2023-04-25T17:11:08.914Z,68.73242
2023-04-25T17:13:08.671Z,68.68457
2023-04-25T17:15:08.674Z,68.88672
2023-04-25T17:17:08.664Z,69.2207
2023-04-25T17:19:56.862Z,69.15039
2023-04-25T17:21:56.583Z,69.16309
2023-04-25T17:23:56.632Z,69.44434
2023-04-25T17:25:57.200Z,69.41406
2023-04-25T17:27:56.567Z,69.26953
2023-04-25T17:29:56.602Z,69.24023
2023-04-25T17:31:57.534Z,69.5332
2023-04-25T17:35:18.877Z,69.75684
2023-04-25T17:37:18.599Z,69.86816
2023-04-25T17:39:18.772Z,69.54297
2023-04-25T17:41:18.652Z,69.69922
2023-04-25T17:43:18.661Z,70.13086
2023-04-25T17:45:18.845Z,72.04395
2023-04-25T17:47:18.765Z,71.94629
2023-04-25T17:50:12.601Z,71.26465
2023-04-25T17:52:12.563Z,71.19727
2023-04-25T17:54:12.457Z,72.45996
2023-04-25T17:56:26.903Z,72.64355
2023-04-25T17:58:12.560Z,71.90234
2023-04-25T18:00:12.525Z,71.86816
2023-04-25T18:02:12.877Z,71.31738
2023-04-25T18:05:41.631Z,71.13867
2023-04-25T18:07:41.584Z,71.38477
2023-04-25T18:09:41.706Z,70.95313
2023-04-25T18:11:41.685Z,70.93457
2023-04-25T18:13:42.025Z,70.58203
2023-04-25T18:15:41.566Z,71.08398
2023-04-25T18:17:41.706Z,70.875
2023-04-25T18:20:37.997Z,71.18262
2023-04-25T18:22:37.688Z,70.80176
2023-04-25T18:24:37.652Z,71.32227
2023-04-25T18:26:38.269Z,71.05176
2023-04-25T18:28:37.701Z,70.99512
2023-04-25T18:30:37.652Z,71.38477
2023-04-25T18:32:37.762Z,71.33984
2023-04-25T18:36:00.010Z,71.62305
2023-04-25T18:37:54.938Z,72.02832
2023-04-25T18:39:54.916Z,71.63965
2023-04-25T18:42:04.541Z,71.46973
2023-04-25T18:43:55.558Z,71.44824
2023-04-25T18:45:55.045Z,71.70508
2023-04-25T18:47:55.041Z,72.51367
2023-04-25T18:51:03.385Z,71.80176
2023-04-25T18:53:03.181Z,71.79199
2023-04-25T18:55:03.142Z,71.54004
2023-04-25T18:57:03.014Z,71.62695
2023-04-25T18:59:03.170Z,71.93359
2023-04-25T19:01:03.337Z,72.15039
2023-04-25T19:03:03.356Z,72.86328
2023-04-25T19:06:17.224Z,71.82031
2023-04-25T19:08:17.745Z,72.15039
2023-04-25T19:10:17.169Z,72.1875
2023-04-25T19:12:17.167Z,72.25879
2023-04-25T19:14:17.150Z,72.56641
2023-04-25T19:16:17.278Z,72.62598
2023-04-25T19:18:17.406Z,72.4541
2023-04-25T19:21:46.101Z,72.5166
2023-04-25T19:23:46.100Z,72.50879
2023-04-25T19:25:45.977Z,72.74316
2023-04-25T19:27:45.987Z,72.48535
2023-04-25T19:29:45.971Z,72.65137
2023-04-25T19:31:45.993Z,72.77441
2023-04-25T19:33:46.011Z,72.81445
2023-04-25T19:36:54.173Z,72.85645
2023-04-25T19:38:54.321Z,72.75098
2023-04-25T19:40:54.242Z,72.4248
2023-04-25T19:42:54.096Z,72.30762
2023-04-25T19:44:54.165Z,72.2793
2023-04-25T19:46:54.176Z,72.93066
2023-04-25T19:48:54.018Z,72.10938
2023-04-25T19:52:01.407Z,72.38672
2023-04-25T19:54:01.654Z,72.76465
2023-04-25T19:56:01.625Z,72.64746
2023-04-25T19:58:01.707Z,73.05957
2023-04-25T20:00:01.506Z,72.82031
2023-04-25T20:02:01.888Z,73.03906
2023-04-25T20:04:01.918Z,72.97559
2023-04-25T20:07:03.852Z,73.05371
2023-04-25T20:09:04.246Z,73.38672
2023-04-25T20:11:03.747Z,72.98535
2023-04-25T20:13:03.681Z,73.37695
2023-04-25T20:15:03.878Z,73.09375
2023-04-25T20:17:03.973Z,73.59863
2023-04-25T20:19:04.050Z,73.51563
2023-04-25T20:22:19.289Z,73.31348
2023-04-25T20:24:19.391Z,73.39648
2023-04-25T20:26:22.118Z,73.21875
2023-04-25T20:28:19.419Z,73.14551
2023-04-25T20:30:19.280Z,72.51855
2023-04-25T20:32:19.327Z,72.36133
2023-04-25T20:34:19.269Z,72.3877
2023-04-25T20:37:10.233Z,72.12598
2023-04-25T20:39:09.885Z,72.47559
2023-04-25T20:41:10.015Z,72.31152
2023-04-25T20:43:10.004Z,71.97363
2023-04-25T20:45:09.951Z,72.1582
2023-04-25T20:47:10.086Z,72.13086
2023-04-25T20:49:09.943Z,71.875
2023-04-25T20:52:08.890Z,71.89648
2023-04-25T20:54:11.095Z,72.10742
2023-04-25T20:56:08.924Z,71.87891
2023-04-25T20:58:08.907Z,71.99121
2023-04-25T21:00:08.918Z,71.94727
2023-04-25T21:02:10.912Z,72.22852
2023-04-25T21:04:09.346Z,72.06641
2023-04-25T21:06:09.142Z,72.34375
2023-04-25T21:08:03.357Z,72.50586
2023-04-25T21:10:03.242Z,72.59766
2023-04-25T21:12:03.402Z,72.3252
2023-04-25T21:14:03.356Z,72.41309
2023-04-25T21:16:03.378Z,72.10742
2023-04-25T21:18:03.322Z,73.17383
2023-04-25T21:20:03.247Z,74.62988
2023-04-25T21:22:42.904Z,74.37207
2023-04-25T21:24:42.493Z,74.20703
2023-04-25T21:26:42.611Z,73.52539
2023-04-25T21:28:42.595Z,73.09277
2023-04-25T21:30:42.685Z,72.61816
2023-04-25T21:32:42.775Z,73.17871
2023-04-25T21:34:42.552Z,73.83789
2023-04-25T21:37:41.789Z,73.76855
2023-04-25T21:39:42.036Z,73.66504
2023-04-25T21:41:41.898Z,73.51367
2023-04-25T21:43:41.862Z,73.19922
2023-04-25T21:46:15.173Z,72.58203
2023-04-25T21:47:42.040Z,72.93262
2023-04-25T21:49:42.017Z,73.96387
2023-04-25T21:51:41.853Z,73.84668
2023-04-25T21:52:54.318Z,73.96094
2023-04-25T21:54:54.307Z,73.61426
2023-04-25T21:56:54.448Z,73.34473
2023-04-25T21:58:54.832Z,73.33398
2023-04-25T22:00:54.320Z,73.13867
2023-04-25T22:02:54.617Z,73.16113
2023-04-25T22:04:54.581Z,73.2002
2023-04-25T22:06:54.294Z,72.87305
2023-04-25T22:08:03.012Z,72.66309
2023-04-25T22:10:02.968Z,72.71094
2023-04-25T22:12:03.156Z,72.60449
2023-04-25T22:14:03.026Z,72.8584
2023-04-25T22:16:03.138Z,72.90332
2023-04-25T22:18:03.207Z,72.54102
2023-04-25T22:20:02.942Z,72.93945
2023-04-25T22:22:03.066Z,73.19922
2023-04-25T22:23:15.949Z,73.29883
2023-04-25T22:25:15.979Z,73.47266
2023-04-25T22:27:15.898Z,73.40625
2023-04-25T22:29:15.971Z,73.17773
2023-04-25T22:31:15.993Z,73.22754
2023-04-25T22:33:15.933Z,73.34766
2023-04-25T22:35:15.984Z,73.13184
2023-04-25T22:39:12.516Z,72.97266
2023-04-25T22:41:12.572Z,73.03418
2023-04-25T22:43:12.520Z,72.7998
2023-04-25T22:45:12.590Z,72.55469
2023-04-25T22:47:12.465Z,72.52051
2023-04-25T22:49:12.561Z,72.76563
2023-04-25T22:51:12.532Z,72.91602
2023-04-25T22:54:17.523Z,72.51855
2023-04-25T22:56:17.598Z,72.28027
2023-04-25T22:58:17.501Z,73.14648
2023-04-25T23:00:17.569Z,73.61035
2023-04-25T23:02:17.675Z,73.09277
2023-04-25T23:04:18.024Z,72.94238
2023-04-25T23:06:17.640Z,73.9834
2023-04-25T23:08:59.437Z,73.81836
2023-04-25T23:10:59.458Z,73.73438
2023-04-25T23:12:59.438Z,73.69043
2023-04-25T23:14:59.355Z,74.46191
2023-04-25T23:16:59.487Z,75.32422
2023-04-25T23:18:59.398Z,75.56445
2023-04-25T23:20:59.401Z,75.00684
2023-04-25T23:24:10.759Z,73.93848
2023-04-25T23:26:10.649Z,73.18164
2023-04-25T23:28:10.650Z,72.94824
2023-04-25T23:30:10.675Z,73.29883
2023-04-25T23:32:10.661Z,72.95215
2023-04-25T23:34:10.602Z,72.72656
2023-04-25T23:36:10.623Z,73.0625
2023-04-25T23:39:51.378Z,72.29102
2023-04-25T23:41:51.086Z,72.10742
2023-04-25T23:43:51.118Z,72.18359
2023-04-25T23:45:51.310Z,72.63086
2023-04-25T23:47:51.207Z,72.69629
2023-04-25T23:49:51.172Z,72.4375
2023-04-25T23:51:51.124Z,72.34082
2023-04-25T23:54:58.925Z,72.0166
2023-04-25T23:56:58.849Z,71.81055
2023-04-25T23:58:58.870Z,71.88574
